Time;durP1;ratioP1;P1;durP2;ratioP2;P2;SDS_P1;SDS_P2;PMS_P1;PMS_P2;Temp;Humidity;BMP_temperature;BMP_pressure;BME280_temperature;BME280_humidity;BME280_pressure;Samples;Min_cycle;Max_cycle;Signal;HPM_P1;HPM_P2
2022/10/21 00:01:11;;;;;;;117.68;31.27;;;;;;;12.94;100.00;97811.16;5135215;27;20035;-79
2022/10/21 00:03:37;;;;;;;97.28;28.23;;;;;;;12.96;100.00;97816.97;5134118;27;20023;-79
2022/10/21 00:06:03;;;;;;;139.20;32.22;;;;;;;12.80;100.00;97818.56;5116536;27;20039;-79
2022/10/21 00:08:29;;;;;;;113.47;27.95;;;;;;;12.84;100.00;97819.69;5116295;27;20031;-78
2022/10/21 00:10:57;;;;;;;125.18;29.35;;;;;;;12.84;100.00;97817.84;5135355;27;20034;-79
2022/10/21 00:13:24;;;;;;;135.05;30.98;;;;;;;12.80;100.00;97813.31;5116414;27;20023;-81
2022/10/21 00:16:00;;;;;;;104.82;28.05;;;;;;;12.93;100.00;97828.78;5116293;27;20035;-79
2022/10/21 00:18:27;;;;;;;108.90;28.33;;;;;;;12.85;100.00;97816.78;5115097;27;20111;-80
2022/10/21 00:20:52;;;;;;;90.55;24.70;;;;;;;12.84;100.00;97819.69;5135032;27;20423;-80
2022/10/21 00:23:18;;;;;;;129.95;28.20;;;;;;;12.83;100.00;97816.25;5135248;27;20127;-79
2022/10/21 00:25:44;;;;;;;73.68;24.35;;;;;;;12.81;100.00;97812.25;5116432;27;20042;-79
2022/10/21 00:28:09;;;;;;;83.07;24.98;;;;;;;12.86;100.00;97821.03;5116408;27;20440;-79
2022/10/21 00:30:35;;;;;;;130.15;28.98;;;;;;;12.92;100.00;97824.53;5134527;27;20065;-81
2022/10/21 00:33:00;;;;;;;95.03;25.48;;;;;;;12.96;100.00;97828.28;5135021;27;20038;-80
2022/10/21 00:35:26;;;;;;;91.00;25.05;;;;;;;12.96;100.00;97827.50;5135016;27;20122;-79
2022/10/21 00:37:51;;;;;;;91.15;25.10;;;;;;;13.05;100.00;97817.38;5134590;27;20472;-79
2022/10/21 00:40:17;;;;;;;65.10;21.92;;;;;;;13.11;100.00;97806.66;5135296;27;20031;-79
2022/10/21 00:42:43;;;;;;;80.43;23.05;;;;;;;13.13;100.00;97809.03;5116001;27;20553;-79
2022/10/21 00:45:08;;;;;;;73.43;22.58;;;;;;;13.11;100.00;97811.13;5134522;27;20054;-79
2022/10/21 00:47:49;;;;;;;72.70;20.73;;;;;;;13.04;100.00;97802.59;5115090;27;20055;-79
2022/10/21 00:50:40;;;;;;;92.63;23.73;;;;;;;12.92;100.00;97800.84;5134190;27;20031;-78
2022/10/21 00:53:09;;;;;;;64.07;20.88;;;;;;;12.83;100.00;97791.75;5051395;27;20077;-78
2022/10/21 00:55:39;;;;;;;61.58;21.67;;;;;;;12.73;100.00;97788.94;5133427;27;20061;-79
2022/10/21 00:58:06;;;;;;;67.55;22.45;;;;;;;12.59;100.00;97784.00;5134130;27;20033;-79
2022/10/21 01:00:31;;;;;;;82.78;23.20;;;;;;;12.55;100.00;97785.50;5115785;27;20066;-79
2022/10/21 01:02:58;;;;;;;73.72;22.13;;;;;;;12.54;100.00;97782.09;5133266;27;20142;-79
2022/10/21 01:05:25;;;;;;;75.93;21.75;;;;;;;12.50;100.00;97778.34;5115656;27;20496;-82
2022/10/21 01:07:51;;;;;;;111.97;25.85;;;;;;;12.49;100.00;97773.31;5134359;27;20027;-79
2022/10/21 01:10:17;;;;;;;59.42;20.23;;;;;;;12.42;100.00;97774.28;5115263;27;20026;-79
2022/10/21 01:13:05;;;;;;;71.57;20.70;;;;;;;12.41;100.00;97777.13;5134115;27;20023;-79
2022/10/21 01:16:06;;;;;;;53.80;18.73;;;;;;;12.38;100.00;97775.78;5112946;27;20552;-81
2022/10/21 01:19:07;;;;;;;54.15;18.33;;;;;;;12.27;100.00;97766.88;5115454;27;20545;-79
2022/10/21 01:21:40;;;;;;;55.00;19.10;;;;;;;12.24;100.00;97771.84;5030360;28;20029;-79
2022/10/21 01:24:34;;;;;;;62.40;21.70;;;;;;;12.27;100.00;97763.47;5096831;27;20067;-79
2022/10/21 01:27:23;;;;;;;45.90;19.20;;;;;;;12.38;100.00;97764.44;5132123;27;20487;-79
2022/10/21 01:30:21;;;;;;;94.30;25.90;;;;;;;12.50;100.00;97767.81;5112724;27;20473;-79
2022/10/21 01:32:55;;;;;;;94.60;26.42;;;;;;;12.55;100.00;97759.19;5114103;27;20045;-78
2022/10/21 01:35:24;;;;;;;72.85;24.27;;;;;;;12.53;100.00;97750.72;5113796;27;20023;-78
2022/10/21 01:38:28;;;;;;;76.95;23.75;;;;;;;12.50;100.00;97759.09;5133661;27;20027;-79
2022/10/21 01:41:01;;;;;;;66.78;21.63;;;;;;;12.36;100.00;97756.00;5131994;27;20129;-79
2022/10/21 01:43:34;;;;;;;75.10;22.85;;;;;;;12.42;100.00;97758.47;5133350;27;20035;-78
2022/10/21 01:46:14;;;;;;;83.68;23.70;;;;;;;12.49;100.00;97762.78;5133365;27;20035;-79
2022/10/21 01:48:46;;;;;;;76.53;23.35;;;;;;;12.53;100.00;97763.91;5133336;27;20087;-81
2022/10/21 01:51:12;;;;;;;74.88;23.52;;;;;;;12.55;100.00;97748.66;5132068;27;20498;-79
2022/10/21 01:53:46;;;;;;;193.90;33.72;;;;;;;12.57;100.00;97746.56;5133353;27;20062;-78
2022/10/21 01:56:16;;;;;;;108.43;26.48;;;;;;;12.51;100.00;97750.19;5131551;27;20019;-80
2022/10/21 01:58:44;;;;;;;84.78;24.10;;;;;;;12.41;100.00;97751.63;5130392;27;20039;-80
2022/10/21 02:01:11;;;;;;;67.82;21.67;;;;;;;12.32;100.00;97750.41;5114562;27;20400;-79
2022/10/21 02:03:40;;;;;;;76.82;21.40;;;;;;;12.18;100.00;97744.66;5132681;27;20456;-80
2022/10/21 02:06:06;;;;;;;69.20;21.58;;;;;;;12.08;100.00;97733.94;5114971;27;20069;-79
2022/10/21 02:08:32;;;;;;;68.65;21.27;;;;;;;12.01;100.00;97739.38;5132608;27;20066;-78
2022/10/21 02:11:01;;;;;;;103.45;24.73;;;;;;;11.94;100.00;97743.91;5114813;27;20164;-79
2022/10/21 02:13:36;;;;;;;57.33;20.75;;;;;;;11.88;100.00;97723.84;5130533;27;20035;-79
2022/10/21 02:16:07;;;;;;;81.28;24.10;;;;;;;11.92;100.00;97735.47;5112824;27;20031;-79
2022/10/21 02:18:33;;;;;;;83.47;25.00;;;;;;;11.85;100.00;97736.41;5111801;27;20079;-79
2022/10/21 02:21:03;;;;;;;64.40;21.67;;;;;;;11.85;100.00;97736.41;5114187;27;20109;-79
2022/10/21 02:23:44;;;;;;;65.47;21.88;;;;;;;11.82;100.00;97736.91;5131551;27;20027;-79
2022/10/21 02:26:10;;;;;;;84.38;24.55;;;;;;;11.73;100.00;97732.25;5132314;27;20047;-79
2022/10/21 02:28:36;;;;;;;75.72;24.20;;;;;;;11.62;100.00;97728.63;5113630;27;20058;-79
2022/10/21 02:31:24;;;;;;;76.15;23.48;;;;;;;11.63;100.00;97727.59;5132379;27;20041;-79
2022/10/21 02:34:04;;;;;;;112.38;28.75;;;;;;;11.55;100.00;97713.00;5118713;27;20050;-79
2022/10/21 02:37:08;;;;;;;86.57;24.95;;;;;;;11.51;100.00;97710.00;5132262;27;20506;-78
2022/10/21 02:39:42;;;;;;;87.55;25.63;;;;;;;11.40;100.00;97705.63;5131760;27;20413;-79
2022/10/21 02:42:13;;;;;;;80.70;29.20;;;;;;;11.36;100.00;97701.81;5131950;27;20031;-78
2022/10/21 02:44:38;;;;;;;148.85;33.78;;;;;;;11.35;100.00;97694.97;5131940;27;20110;-78
2022/10/21 02:47:04;;;;;;;87.80;27.58;;;;;;;11.31;100.00;97688.59;5132351;27;20180;-78
2022/10/21 02:49:29;;;;;;;83.35;26.95;;;;;;;11.28;100.00;97685.41;5131899;28;20127;-79
2022/10/21 02:51:56;;;;;;;113.05;30.13;;;;;;;11.25;100.00;97691.13;5113445;28;20037;-79
2022/10/21 02:54:21;;;;;;;127.85;31.08;;;;;;;11.23;100.00;97685.31;5132362;28;20388;-79
2022/10/21 02:56:47;;;;;;;246.23;37.55;;;;;;;11.35;100.00;97689.72;5112082;28;20032;-79
2022/10/21 02:59:13;;;;;;;74.47;25.27;;;;;;;11.37;100.00;97675.34;5114418;28;20031;-79
2022/10/21 03:01:39;;;;;;;80.65;26.25;;;;;;;11.45;100.00;97666.28;5113995;28;20422;-81
2022/10/21 03:04:04;;;;;;;331.33;44.35;;;;;;;11.53;100.00;97659.88;5132056;28;20515;-79
2022/10/21 03:06:30;;;;;;;238.90;43.58;;;;;;;11.61;100.00;97651.59;5132150;27;20378;-79
2022/10/21 03:08:56;;;;;;;200.38;40.58;;;;;;;11.64;100.00;97661.63;5131894;28;20465;-81
2022/10/21 03:11:22;;;;;;;158.27;34.05;;;;;;;11.81;100.00;97655.63;5136330;27;20436;-80
2022/10/21 03:13:47;;;;;;;88.93;27.92;;;;;;;11.88;100.00;97674.66;5135528;27;20046;-81
2022/10/21 03:16:13;;;;;;;93.22;28.80;;;;;;;11.85;100.00;97654.09;5116181;27;20373;-81
2022/10/21 03:18:38;;;;;;;89.90;26.15;;;;;;;11.74;100.00;97634.72;5136527;27;20106;-81
2022/10/21 03:21:04;;;;;;;87.07;25.52;;;;;;;11.64;100.00;97637.97;5136599;27;20410;-82
2022/10/21 03:23:30;;;;;;;65.55;22.60;;;;;;;11.57;100.00;97627.59;5136552;27;20042;-81
2022/10/21 03:25:55;;;;;;;69.78;21.80;;;;;;;11.49;100.00;97628.00;5136716;27;20023;-80
2022/10/21 03:28:21;;;;;;;79.95;24.20;;;;;;;11.43;100.00;97623.69;5135271;27;20055;-81
2022/10/21 03:30:48;;;;;;;62.88;20.48;;;;;;;11.39;100.00;97635.69;5117547;27;20042;-80
2022/10/21 03:33:13;;;;;;;60.60;20.33;;;;;;;11.33;100.00;97629.56;5136391;27;20034;-80
2022/10/21 03:35:39;;;;;;;65.60;21.90;;;;;;;11.25;100.00;97622.84;5135811;27;20364;-81
2022/10/21 03:38:06;;;;;;;67.72;22.73;;;;;;;11.24;100.00;97626.50;5117462;27;20472;-80
2022/10/21 03:40:31;;;;;;;54.25;19.73;;;;;;;11.28;100.00;97626.81;5117111;27;20031;-79
2022/10/21 03:42:57;;;;;;;53.22;20.73;;;;;;;11.33;100.00;97623.50;5135180;27;20076;-81
2022/10/21 03:45:23;;;;;;;112.30;21.13;;;;;;;11.29;100.00;97633.66;5135910;27;20031;-80
2022/10/21 03:47:49;;;;;;;49.53;18.20;;;;;;;11.32;100.00;97627.16;5116914;27;20058;-80
2022/10/21 03:50:15;;;;;;;43.97;18.08;;;;;;;11.38;100.00;97634.91;5133989;27;20037;-80
2022/10/21 03:52:41;;;;;;;44.00;16.33;;;;;;;11.38;100.00;97631.47;5135133;27;20453;-80
2022/10/21 03:55:07;;;;;;;333.73;32.47;;;;;;;11.35;100.00;97637.19;5098439;27;20034;-80
2022/10/21 03:57:32;;;;;;;29.83;13.32;;;;;;;11.40;100.00;97643.34;5135298;27;20019;-80
2022/10/21 03:59:58;;;;;;;139.10;20.55;;;;;;;11.38;100.00;97629.66;5116857;27;20049;-81
2022/10/21 04:02:24;;;;;;;46.33;13.55;;;;;;;11.40;100.00;97634.69;5135268;27;20027;-80
2022/10/21 04:04:50;;;;;;;45.55;12.75;;;;;;;11.39;100.00;97625.97;5135380;27;20038;-80
2022/10/21 04:07:15;;;;;;;29.17;12.90;;;;;;;11.42;100.00;97627.34;5116799;27;20472;-80
2022/10/21 04:09:41;;;;;;;28.55;13.05;;;;;;;11.38;100.00;97627.00;5135066;27;20085;-81
2022/10/21 04:12:07;;;;;;;30.73;14.50;;;;;;;11.31;100.00;97626.38;5116408;27;20038;-80
2022/10/21 04:14:32;;;;;;;26.92;12.18;;;;;;;11.23;100.00;97618.84;5116564;27;20039;-79
2022/10/21 04:16:58;;;;;;;25.58;12.05;;;;;;;11.19;100.00;97613.25;5135061;27;20030;-80
2022/10/21 04:19:23;;;;;;;32.75;13.63;;;;;;;11.16;100.00;97610.31;5134882;27;20038;-79
2022/10/21 04:21:48;;;;;;;34.80;13.38;;;;;;;11.14;100.00;97613.16;5133821;27;20410;-79
2022/10/21 04:24:14;;;;;;;35.63;14.38;;;;;;;11.12;100.00;97609.97;5116528;27;20052;-80
2022/10/21 04:26:41;;;;;;;34.50;13.93;;;;;;;11.07;100.00;97607.25;5116407;27;20038;-80
2022/10/21 04:29:07;;;;;;;36.40;13.32;;;;;;;11.13;100.00;97608.94;5116063;27;20023;-80
2022/10/21 04:31:33;;;;;;;33.45;14.10;;;;;;;11.16;100.00;97603.22;5134672;27;20038;-81
2022/10/21 04:33:58;;;;;;;35.70;13.23;;;;;;;11.18;100.00;97603.00;5134972;27;20031;-80
2022/10/21 04:36:24;;;;;;;28.50;13.05;;;;;;;11.21;100.00;97607.78;5098648;27;20384;-81
2022/10/21 04:38:49;;;;;;;33.13;12.05;;;;;;;11.18;100.00;97600.38;5134411;27;20034;-80
2022/10/21 04:41:15;;;;;;;27.00;12.32;;;;;;;11.16;100.00;97590.09;5116212;27;20027;-80
2022/10/21 04:43:40;;;;;;;25.13;12.32;;;;;;;11.08;100.00;97590.47;5134307;27;20110;-80
2022/10/21 04:46:12;;;;;;;28.92;12.75;;;;;;;11.15;100.00;97596.38;5134429;27;20489;-79
2022/10/21 04:48:38;;;;;;;30.50;12.82;;;;;;;11.15;100.00;97580.63;5134050;27;20115;-80
2022/10/21 04:51:04;;;;;;;33.55;13.02;;;;;;;11.27;100.00;97578.75;5134245;27;20084;-81
2022/10/21 04:53:31;;;;;;;55.10;16.77;;;;;;;11.37;100.00;97579.94;5115715;27;20387;-81
2022/10/21 04:55:56;;;;;;;50.53;15.80;;;;;;;11.45;100.00;97568.28;5134566;27;20045;-80
2022/10/21 04:58:23;;;;;;;54.72;16.17;;;;;;;11.52;100.00;97582.84;5134501;27;20027;-80
2022/10/21 05:00:50;;;;;;;69.82;18.13;;;;;;;11.65;100.00;97579.13;5115865;27;20031;-80
2022/10/21 05:03:16;;;;;;;58.40;17.88;;;;;;;11.72;100.00;97592.13;5133907;27;20031;-80
2022/10/21 05:05:41;;;;;;;77.25;19.77;;;;;;;11.70;100.00;97588.94;5134405;27;20035;-80
2022/10/21 05:08:07;;;;;;;207.48;28.45;;;;;;;11.73;100.00;97622.63;5133671;27;20031;-79
2022/10/21 05:10:32;;;;;;;103.82;22.10;;;;;;;11.83;100.00;97611.47;5134026;27;20041;-80
2022/10/21 05:12:58;;;;;;;117.55;23.10;;;;;;;11.78;100.00;97609.56;5134484;27;20019;-80
2022/10/21 05:15:24;;;;;;;70.20;18.77;;;;;;;11.87;100.00;97604.72;5115458;27;20023;-80
2022/10/21 05:17:52;;;;;;;76.38;17.77;;;;;;;11.89;100.00;97593.97;5114450;27;20414;-80
2022/10/21 05:20:18;;;;;;;75.35;18.73;;;;;;;11.97;100.00;97601.44;5115775;27;20030;-80
2022/10/21 05:22:44;;;;;;;68.38;17.50;;;;;;;12.00;100.00;97582.59;5114565;27;20035;-80
2022/10/21 05:25:10;;;;;;;54.75;14.93;;;;;;;12.02;100.00;97593.69;5115633;27;20030;-80
2022/10/21 05:27:36;;;;;;;93.68;20.38;;;;;;;11.91;100.00;97586.63;5133758;27;20032;-79
2022/10/21 05:30:03;;;;;;;57.50;16.90;;;;;;;11.90;100.00;97574.53;5133786;27;20567;-78
2022/10/21 05:32:28;;;;;;;53.45;16.13;;;;;;;11.86;100.00;97567.13;5133956;27;20116;-78
2022/10/21 05:34:54;;;;;;;52.50;16.38;;;;;;;11.81;100.00;97561.78;5133553;27;20117;-80
2022/10/21 05:37:20;;;;;;;56.30;16.48;;;;;;;11.78;100.00;97561.47;5133116;27;20023;-80
2022/10/21 05:39:46;;;;;;;52.03;15.50;;;;;;;11.71;100.00;97561.63;5133489;27;20080;-78
2022/10/21 05:42:12;;;;;;;45.40;15.20;;;;;;;11.74;100.00;97561.13;5133136;27;20027;-78
2022/10/21 05:44:37;;;;;;;55.92;17.08;;;;;;;11.70;100.00;97547.69;5133441;27;20475;-78
2022/10/21 05:47:03;;;;;;;43.55;14.90;;;;;;;11.76;100.00;97553.03;5114720;27;20039;-78
2022/10/21 05:49:29;;;;;;;40.03;14.18;;;;;;;11.78;100.00;97556.97;5132626;27;20496;-78
2022/10/21 05:51:54;;;;;;;61.72;14.82;;;;;;;11.78;100.00;97551.72;5133498;27;20090;-79
2022/10/21 05:54:20;;;;;;;34.75;14.48;;;;;;;11.87;100.00;97552.13;5133062;27;20027;-79
2022/10/21 05:56:46;;;;;;;45.78;15.25;;;;;;;11.90;100.00;97542.97;5132912;27;20035;-80
2022/10/21 05:59:12;;;;;;;38.95;14.10;;;;;;;11.93;100.00;97531.97;5114654;27;20110;-81
2022/10/21 06:01:38;;;;;;;39.60;14.85;;;;;;;11.94;100.00;97533.56;5114722;27;20535;-81
2022/10/21 06:04:04;;;;;;;36.67;14.10;;;;;;;11.98;100.00;97524.16;5132713;27;20023;-80
2022/10/21 06:06:30;;;;;;;43.15;15.80;;;;;;;11.97;100.00;97526.00;5132608;27;20024;-80
2022/10/21 06:08:55;;;;;;;38.33;14.90;;;;;;;12.00;100.00;97528.16;5132754;27;20105;-81
2022/10/21 06:11:21;;;;;;;34.33;13.02;;;;;;;12.04;100.00;97531.13;5132985;27;20042;-81
2022/10/21 06:13:46;;;;;;;27.98;11.82;;;;;;;11.98;100.00;97529.41;5113786;27;20389;-81
2022/10/21 06:16:13;;;;;;;31.35;11.70;;;;;;;11.97;100.00;97528.63;5131030;27;20038;-81
2022/10/21 06:18:40;;;;;;;39.03;14.63;;;;;;;12.02;100.00;97533.22;5132638;27;20023;-80
2022/10/21 06:21:07;;;;;;;33.58;12.48;;;;;;;12.05;100.00;97530.09;5113939;27;20023;-81
2022/10/21 06:23:32;;;;;;;58.22;16.25;;;;;;;12.08;100.00;97528.78;5132394;27;20045;-80
2022/10/21 06:26:06;;;;;;;57.30;19.48;;;;;;;12.10;100.00;97530.16;5132436;27;20031;-81
2022/10/21 06:28:34;;;;;;;33.60;13.43;;;;;;;12.07;100.00;97527.19;5111285;27;20062;-80
2022/10/21 06:31:01;;;;;;;36.22;13.52;;;;;;;12.03;100.00;97529.53;5131907;27;20034;-80
2022/10/21 06:33:27;;;;;;;30.77;11.57;;;;;;;12.02;100.00;97535.84;5114112;27;20023;-80
2022/10/21 06:35:54;;;;;;;188.98;25.45;;;;;;;11.97;100.00;97543.59;5129724;27;20039;-81
2022/10/21 06:38:19;;;;;;;40.67;16.42;;;;;;;11.99;100.00;97547.59;5113828;27;20035;-81
2022/10/21 06:40:45;;;;;;;47.25;16.30;;;;;;;12.01;100.00;97542.13;5096573;28;20049;-81
2022/10/21 06:43:10;;;;;;;43.47;17.38;;;;;;;12.05;100.00;97537.97;5113429;27;20027;-80
2022/10/21 06:45:36;;;;;;;59.45;18.40;;;;;;;12.07;100.00;97537.72;5131399;27;20046;-80
2022/10/21 06:48:02;;;;;;;51.88;17.00;;;;;;;12.06;100.00;97542.19;5095608;28;20057;-80
2022/10/21 06:50:28;;;;;;;101.13;25.08;;;;;;;12.11;100.00;97557.25;5131381;27;20027;-81
2022/10/21 06:52:54;;;;;;;198.45;29.70;;;;;;;12.13;100.00;97563.84;5113532;28;20080;-80
2022/10/21 06:55:20;;;;;;;65.15;23.40;;;;;;;12.16;100.00;97567.03;5131441;28;20040;-80
2022/10/21 06:57:46;;;;;;;104.78;24.08;;;;;;;12.20;100.00;97562.91;5132016;28;20027;-81
2022/10/21 07:00:12;;;;;;;412.77;39.25;;;;;;;12.18;100.00;97565.78;5132312;28;20033;-81
2022/10/21 07:02:41;;;;;;;160.20;28.15;;;;;;;12.20;100.00;97571.59;5131540;28;20389;-81
2022/10/21 07:05:07;;;;;;;76.00;23.60;;;;;;;12.22;100.00;97574.78;5130726;28;20121;-80
2022/10/21 07:07:33;;;;;;;107.30;29.40;;;;;;;12.19;100.00;97571.84;5131960;28;20144;-80
2022/10/21 07:09:58;;;;;;;111.20;28.65;;;;;;;12.19;100.00;97571.84;5112576;28;20123;-81
2022/10/21 07:12:26;;;;;;;94.70;28.73;;;;;;;12.22;100.00;97577.41;5132011;28;20611;-82
2022/10/21 07:14:53;;;;;;;143.45;31.83;;;;;;;12.11;100.00;97576.47;5132392;28;20238;-83
2022/10/21 07:17:19;;;;;;;95.13;27.23;;;;;;;12.19;100.00;97570.00;5132398;28;20023;-82
2022/10/21 07:19:45;;;;;;;93.72;27.95;;;;;;;12.26;100.00;97569.84;5132670;28;20046;-83
2022/10/21 07:22:13;;;;;;;98.78;30.30;;;;;;;12.24;100.00;97564.81;5113512;28;20019;-82
2022/10/21 07:24:39;;;;;;;76.15;26.85;;;;;;;12.27;100.00;97560.91;5097121;28;20476;-83
2022/10/21 07:27:09;;;;;;;92.45;27.90;;;;;;;12.29;100.00;97553.56;5114732;28;20035;-83
2022/10/21 07:29:34;;;;;;;86.60;27.25;;;;;;;12.34;100.00;97561.50;5132112;28;20027;-84
2022/10/21 07:32:00;;;;;;;86.95;27.27;;;;;;;12.36;100.00;97556.81;5113679;28;20072;-82
2022/10/21 07:34:26;;;;;;;91.30;28.00;;;;;;;12.42;100.00;97555.84;5095476;28;20122;-84
2022/10/21 07:36:52;;;;;;;82.25;26.75;;;;;;;12.44;100.00;97558.22;5131445;28;20035;-82
2022/10/21 07:39:24;;;;;;;130.93;30.52;;;;;;;12.49;100.00;97566.22;5129611;28;20019;-82
2022/10/21 07:41:52;;;;;;;78.57;27.75;;;;;;;12.51;100.00;97563.31;5095163;28;20110;-82
2022/10/21 07:44:20;;;;;;;86.55;27.00;;;;;;;12.56;100.00;97571.28;5113365;28;20469;-82
2022/10/21 07:46:47;;;;;;;90.15;28.55;;;;;;;12.59;100.00;97570.81;5131139;28;20047;-82
2022/10/21 07:49:15;;;;;;;89.80;30.23;;;;;;;12.58;100.00;97569.22;5096073;28;20019;-81
2022/10/21 07:51:41;;;;;;;82.53;27.08;;;;;;;12.61;100.00;97583.72;5131267;28;20080;-81
2022/10/21 07:54:07;;;;;;;128.63;30.75;;;;;;;12.62;100.00;97586.09;5131548;28;20027;-82
2022/10/21 07:56:40;;;;;;;81.95;27.58;;;;;;;12.71;100.00;97589.13;5132109;27;20080;-82
2022/10/21 07:59:05;;;;;;;79.85;27.65;;;;;;;12.72;100.00;97580.19;5133419;27;20027;-82
2022/10/21 08:01:32;;;;;;;126.07;31.75;;;;;;;12.69;100.00;97594.63;5135498;27;20031;-81
2022/10/21 08:03:58;;;;;;;83.35;27.98;;;;;;;12.75;100.00;97594.66;5134883;27;20425;-81
2022/10/21 08:06:25;;;;;;;185.48;37.00;;;;;;;12.77;100.00;97596.03;5135340;27;20110;-80
2022/10/21 08:08:51;;;;;;;95.82;30.30;;;;;;;12.76;100.00;97585.72;5116488;27;20496;-80
2022/10/21 08:11:26;;;;;;;74.47;28.27;;;;;;;12.86;100.00;97585.88;5115876;27;20023;-81
2022/10/21 08:13:52;;;;;;;90.70;30.90;;;;;;;12.83;100.00;97594.25;5134029;27;20593;-80
2022/10/21 08:16:18;;;;;;;85.07;28.42;;;;;;;12.93;100.00;97594.38;5115625;27;20031;-81
2022/10/21 08:18:44;;;;;;;84.78;28.50;;;;;;;13.00;100.00;97596.81;5134166;27;20050;-81
2022/10/21 08:21:10;;;;;;;92.32;29.35;;;;;;;13.05;100.00;97596.09;5116011;27;20532;-81
2022/10/21 08:23:36;;;;;;;208.68;43.35;;;;;;;13.05;100.00;97593.47;5133188;27;20038;-87
2022/10/21 08:26:02;;;;;;;113.95;33.72;;;;;;;13.18;100.00;97581.75;5134461;27;20031;-87
2022/10/21 08:28:29;;;;;;;118.18;33.70;;;;;;;13.19;100.00;97578.88;5115256;27;20023;-88
2022/10/21 08:31:08;;;;;;;105.20;31.25;;;;;;;13.23;100.00;97584.41;5115916;27;20050;-88
2022/10/21 08:33:34;;;;;;;101.63;32.65;;;;;;;13.27;100.00;97583.69;5140672;27;20164;-87
2022/10/21 08:36:07;;;;;;;189.43;43.28;;;;;;;13.11;100.00;97592.47;5117105;27;20482;-88
2022/10/21 08:38:34;;;;;;;96.63;32.53;;;;;;;13.11;100.00;97576.66;5133239;27;20374;-88
2022/10/21 08:41:00;;;;;;;145.40;38.67;;;;;;;13.24;100.00;97578.09;5115152;27;20030;-87
2022/10/21 08:43:30;;;;;;;98.72;33.60;;;;;;;13.40;100.00;97573.81;5134019;27;20023;-88
2022/10/21 08:46:16;;;;;;;106.65;34.70;;;;;;;13.52;100.00;97566.56;5114847;27;20385;-87
2022/10/21 08:48:52;;;;;;;97.28;32.60;;;;;;;13.65;100.00;97567.19;5116300;27;20497;-88
2022/10/21 08:51:36;;;;;;;104.53;36.30;;;;;;;13.63;100.00;97558.75;5133752;27;20027;-86
2022/10/21 08:54:14;;;;;;;94.20;33.22;;;;;;;13.78;100.00;97563.34;5132799;27;20449;-86
2022/10/21 08:56:40;;;;;;;98.07;34.50;;;;;;;13.90;100.00;97553.44;5133917;27;20031;-86
2022/10/21 08:59:19;;;;;;;120.47;36.67;;;;;;;14.08;100.00;97568.06;5115582;27;20078;-87
2022/10/21 09:01:57;;;;;;;162.23;39.58;;;;;;;14.12;100.00;97563.06;5132253;27;20023;-88
2022/10/21 09:04:49;;;;;;;131.45;36.90;;;;;;;14.14;100.00;97556.47;5115403;27;20488;-84
2022/10/21 09:07:52;;;;;;;127.07;36.47;;;;;;;14.39;100.00;97555.06;5109923;27;20051;-85
2022/10/21 09:10:25;;;;;;;150.00;39.55;;;;;;;14.29;100.00;97554.97;5122461;27;20023;-85
2022/10/21 09:13:15;;;;;;;121.45;37.28;;;;;;;14.31;100.00;97560.78;5131232;27;20395;-86
2022/10/21 09:16:00;;;;;;;193.98;41.15;;;;;;;14.34;100.00;97565.56;5115322;27;20476;-87
2022/10/21 09:18:37;;;;;;;115.47;35.97;;;;;;;14.39;100.00;97556.88;5134190;27;20035;-86
2022/10/21 09:21:27;;;;;;;132.52;35.30;;;;;;;14.53;100.00;97557.22;5132771;27;20039;-86
2022/10/21 09:24:01;;;;;;;138.55;36.28;;;;;;;14.57;100.00;97559.09;5133247;27;20072;-86
2022/10/21 09:26:40;;;;;;;157.18;38.72;;;;;;;14.62;100.00;97560.16;5115768;27;20031;-85
2022/10/21 09:29:31;;;;;;;135.90;36.55;;;;;;;14.69;100.00;97550.94;5131251;27;20042;-83
2022/10/21 09:32:18;;;;;;;190.35;42.47;;;;;;;14.71;100.00;97537.53;5116180;27;20027;-82
2022/10/21 09:34:55;;;;;;;123.43;35.58;;;;;;;14.77;100.00;97533.84;5130056;27;20031;-83
2022/10/21 09:37:34;;;;;;;149.23;37.88;;;;;;;14.92;100.00;97538.38;5131904;27;20119;-83
2022/10/21 09:40:16;;;;;;;111.15;33.75;;;;;;;14.98;100.00;97540.00;5131868;27;20026;-82
2022/10/21 09:42:43;;;;;;;129.88;37.17;;;;;;;14.81;100.00;97542.06;5130902;27;20027;-82
2022/10/21 09:45:39;;;;;;;135.52;37.47;;;;;;;14.79;100.00;97538.88;5132633;27;20080;-83
2022/10/21 09:48:25;;;;;;;165.85;37.90;;;;;;;14.76;100.00;97534.13;5130443;27;20035;-82
2022/10/21 09:51:14;;;;;;;127.07;35.75;;;;;;;14.82;100.00;97528.56;5130214;27;20106;-84
2022/10/21 09:54:00;;;;;;;149.77;38.20;;;;;;;14.82;100.00;97541.00;5132556;27;20517;-83
2022/10/21 09:56:48;;;;;;;135.40;35.55;;;;;;;14.77;100.00;97525.16;5108163;27;20053;-82
2022/10/21 09:59:18;;;;;;;124.95;36.55;;;;;;;14.57;100.00;97519.47;5131007;27;20156;-82
2022/10/21 10:01:44;;;;;;;118.65;35.08;;;;;;;14.67;100.00;97516.09;5131569;27;20147;-82
2022/10/21 10:04:20;;;;;;;147.25;39.17;;;;;;;14.60;100.00;97517.38;5131876;27;21320;-82
2022/10/21 10:06:45;;;;;;;130.00;36.47;;;;;;;14.53;100.00;97522.88;5131223;27;20034;-81
2022/10/21 10:09:16;;;;;;;129.55;36.30;;;;;;;14.63;100.00;97522.94;5131898;27;20390;-82
2022/10/21 10:12:12;;;;;;;136.52;37.17;;;;;;;14.70;100.00;97515.56;5131639;27;20455;-83
2022/10/21 10:14:39;;;;;;;206.30;43.53;;;;;;;14.65;100.00;97527.97;5129460;27;20074;-82
2022/10/21 10:17:22;;;;;;;126.65;38.40;;;;;;;14.64;100.00;97521.09;5131878;27;20019;-83
2022/10/21 10:20:04;;;;;;;177.57;42.75;;;;;;;14.58;100.00;97512.38;5131762;27;20095;-82
2022/10/21 10:22:36;;;;;;;124.15;38.70;;;;;;;14.56;100.00;97515.25;5131497;27;20420;-81
2022/10/21 10:25:08;;;;;;;110.03;36.58;;;;;;;14.63;100.00;97509.75;5131617;27;20085;-81
2022/10/21 10:27:35;;;;;;;112.43;36.35;;;;;;;14.65;100.00;97510.28;5131472;27;20438;-81
2022/10/21 10:30:02;;;;;;;118.32;37.72;;;;;;;14.58;100.00;97509.72;5130557;27;20393;-81
2022/10/21 10:32:32;;;;;;;141.98;39.90;;;;;;;14.66;100.00;97503.94;5131398;27;20028;-81
2022/10/21 10:35:04;;;;;;;151.43;38.67;;;;;;;14.64;100.00;97500.75;5130638;27;20031;-81
2022/10/21 10:37:36;;;;;;;147.70;40.90;;;;;;;14.79;100.00;97501.91;5130862;27;20121;-81
2022/10/21 10:40:06;;;;;;;143.13;41.72;;;;;;;14.86;100.00;97497.16;5132043;27;20027;-80
2022/10/21 10:42:40;;;;;;;123.00;41.63;;;;;;;14.93;100.00;97500.34;5130859;27;20122;-81
2022/10/21 10:45:21;;;;;;;174.68;44.95;;;;;;;14.97;100.00;97492.69;5113043;28;20027;-81
2022/10/21 10:47:52;;;;;;;120.35;39.08;;;;;;;14.98;100.00;97484.50;5131195;27;20038;-81
2022/10/21 10:50:36;;;;;;;126.57;41.30;;;;;;;15.01;100.00;97496.38;5111883;28;20074;-81
2022/10/21 10:53:26;;;;;;;117.45;39.55;;;;;;;15.07;100.00;97502.50;5113526;28;20034;-80
2022/10/21 10:56:20;;;;;;;128.02;39.90;;;;;;;14.81;100.00;97499.78;5130445;28;20019;-82
2022/10/21 10:59:30;;;;;;;135.68;39.53;;;;;;;14.86;100.00;97494.53;5130671;28;20108;-82
2022/10/21 11:02:04;;;;;;;122.65;38.38;;;;;;;14.94;100.00;97501.16;5087456;28;20039;-82
2022/10/21 11:04:50;;;;;;;117.03;38.80;;;;;;;15.08;100.00;97501.44;5131902;28;20027;-80
2022/10/21 11:07:19;;;;;;;111.15;38.40;;;;;;;15.08;100.00;97502.25;5129165;28;20084;-82
2022/10/21 11:09:45;;;;;;;109.63;38.28;;;;;;;15.09;100.00;97503.00;5130050;28;20115;-82
2022/10/21 11:12:22;;;;;;;138.55;42.88;;;;;;;14.97;100.00;97503.25;5131303;27;20042;-82
2022/10/21 11:14:55;;;;;;;124.68;40.33;;;;;;;15.02;100.00;97499.84;5130501;28;20027;-83
2022/10/21 11:17:29;;;;;;;108.25;39.33;;;;;;;14.93;100.00;97499.56;5130730;28;20058;-82
2022/10/21 11:20:00;;;;;;;145.55;42.05;;;;;;;15.02;100.00;97499.84;5131843;28;20031;-82
2022/10/21 11:22:52;;;;;;;100.57;37.15;;;;;;;15.06;100.00;97500.91;5129531;28;20027;-82